sensor_id;sensor_type;location;lat;lon;timestamp;pressure;altitude;pressure_sealevel;temperature;humidity
60258;BME280;46115;44.484;11.314;2023-02-18T00:02:55;101632.91;;;11.17;66.19
60258;BME280;46115;44.484;11.314;2023-02-18T00:06:57;101631.25;;;11.14;66.20
60258;BME280;46115;44.484;11.314;2023-02-18T00:11:04;101628.34;;;11.22;65.54
60258;BME280;46115;44.484;11.314;2023-02-18T00:15:07;101633.03;;;11.14;66.34
60258;BME280;46115;44.484;11.314;2023-02-18T00:19:12;101632.91;;;11.17;66.07
60258;BME280;46115;44.484;11.314;2023-02-18T00:23:14;101634.81;;;11.13;65.90
60258;BME280;46115;44.484;11.314;2023-02-18T00:27:18;101632.97;;;11.15;66.27
60258;BME280;46115;44.484;11.314;2023-02-18T00:31:22;101635.03;;;11.06;66.43
60258;BME280;46115;44.484;11.314;2023-02-18T00:35:25;101635.03;;;11.06;66.25
60258;BME280;46115;44.484;11.314;2023-02-18T00:39:27;101641.84;;;11.14;66.58
60258;BME280;46115;44.484;11.314;2023-02-18T00:43:31;101644.94;;;10.99;66.63
60258;BME280;46115;44.484;11.314;2023-02-18T00:47:33;101632.47;;;11.03;66.73
60258;BME280;46115;44.484;11.314;2023-02-18T00:51:35;101630.03;;;10.97;67.32
60258;BME280;46115;44.484;11.314;2023-02-18T00:55:38;101624.81;;;10.95;67.32
60258;BME280;46115;44.484;11.314;2023-02-18T00:59:42;101621.91;;;11.03;66.66
60258;BME280;46115;44.484;11.314;2023-02-18T01:03:44;101619.25;;;11.03;66.40
60258;BME280;46115;44.484;11.314;2023-02-18T01:07:48;101623.84;;;10.98;67.00
60258;BME280;46115;44.484;11.314;2023-02-18T01:11:50;101625.22;;;11.09;66.80
60258;BME280;46115;44.484;11.314;2023-02-18T01:15:54;101630.00;;;10.98;67.23
60258;BME280;46115;44.484;11.314;2023-02-18T01:19:56;101625.66;;;10.96;67.13
60258;BME280;46115;44.484;11.314;2023-02-18T01:23:59;101627.66;;;10.89;66.77
60258;BME280;46115;44.484;11.314;2023-02-18T01:28:02;101633.97;;;10.85;67.13
60258;BME280;46115;44.484;11.314;2023-02-18T01:32:06;101630.19;;;10.92;67.40
60258;BME280;46115;44.484;11.314;2023-02-18T01:36:09;101627.75;;;10.86;67.62
60258;BME280;46115;44.484;11.314;2023-02-18T01:40:14;101609.66;;;10.72;67.43
60258;BME280;46115;44.484;11.314;2023-02-18T01:44:21;101608.06;;;10.67;68.56
60258;BME280;46115;44.484;11.314;2023-02-18T01:48:29;101597.34;;;10.71;67.91
60258;BME280;46115;44.484;11.314;2023-02-18T01:52:32;101598.09;;;10.75;68.49
60258;BME280;46115;44.484;11.314;2023-02-18T01:56:36;101592.00;;;10.73;68.44
60258;BME280;46115;44.484;11.314;2023-02-18T02:00:41;101595.59;;;10.70;68.43
60258;BME280;46115;44.484;11.314;2023-02-18T02:04:45;101583.34;;;10.68;68.18
60258;BME280;46115;44.484;11.314;2023-02-18T02:08:48;101573.84;;;10.62;68.82
60258;BME280;46115;44.484;11.314;2023-02-18T02:12:59;101569.63;;;10.56;68.77
60258;BME280;46115;44.484;11.314;2023-02-18T02:17:09;101564.53;;;10.50;68.29
60258;BME280;46115;44.484;11.314;2023-02-18T02:21:54;101575.06;;;10.52;69.08
60258;BME280;46115;44.484;11.314;2023-02-18T02:26:26;101565.50;;;10.48;69.07
60258;BME280;46115;44.484;11.314;2023-02-18T02:30:51;101569.66;;;10.55;68.70
60258;BME280;46115;44.484;11.314;2023-02-18T02:35:02;101559.53;;;10.41;68.97
60258;BME280;46115;44.484;11.314;2023-02-18T02:39:10;101559.53;;;10.41;68.95
60258;BME280;46115;44.484;11.314;2023-02-18T02:43:20;101549.53;;;10.51;68.45
60258;BME280;46115;44.484;11.314;2023-02-18T02:47:31;101550.72;;;10.41;68.78
60258;BME280;46115;44.484;11.314;2023-02-18T02:51:42;101542.31;;;10.56;68.24
60258;BME280;46115;44.484;11.314;2023-02-18T02:55:47;101540.88;;;10.46;68.36
60258;BME280;46115;44.484;11.314;2023-02-18T02:59:56;101532.94;;;10.46;68.00
60258;BME280;46115;44.484;11.314;2023-02-18T03:04:22;101532.69;;;10.53;68.35
60258;BME280;46115;44.484;11.314;2023-02-18T03:08:40;101534.69;;;10.47;67.96
60258;BME280;46115;44.484;11.314;2023-02-18T03:12:48;101540.00;;;10.45;68.15
60258;BME280;46115;44.484;11.314;2023-02-18T03:16:58;101534.69;;;10.47;68.10
60258;BME280;46115;44.484;11.314;2023-02-18T03:21:07;101522.72;;;10.34;67.93
60258;BME280;46115;44.484;11.314;2023-02-18T03:25:12;101540.00;;;10.45;68.10
60258;BME280;46115;44.484;11.314;2023-02-18T03:29:17;101531.34;;;10.40;67.96
60258;BME280;46115;44.484;11.314;2023-02-18T03:33:27;101536.63;;;10.40;67.63
60258;BME280;46115;44.484;11.314;2023-02-18T03:37:37;101541.88;;;10.42;67.89
60258;BME280;46115;44.484;11.314;2023-02-18T03:41:43;101549.88;;;10.39;67.37
60258;BME280;46115;44.484;11.314;2023-02-18T03:45:46;101555.28;;;10.36;67.54
60258;BME280;46115;44.484;11.314;2023-02-18T03:49:48;101555.56;;;10.26;67.76
60258;BME280;46115;44.484;11.314;2023-02-18T03:53:50;101563.53;;;10.25;67.96
60258;BME280;46115;44.484;11.314;2023-02-18T03:57:54;101557.09;;;10.34;67.59
60258;BME280;46115;44.484;11.314;2023-02-18T04:01:56;101548.78;;;10.16;68.01
60258;BME280;46115;44.484;11.314;2023-02-18T04:05:58;101559.56;;;10.10;68.19
60258;BME280;46115;44.484;11.314;2023-02-18T04:10:01;101555.03;;;10.14;67.84
60258;BME280;46115;44.484;11.314;2023-02-18T04:14:05;101557.78;;;10.11;67.80
60258;BME280;46115;44.484;11.314;2023-02-18T04:18:07;101557.91;;;10.06;68.42
60258;BME280;46115;44.484;11.314;2023-02-18T04:22:09;101550.75;;;10.10;68.51
60258;BME280;46115;44.484;11.314;2023-02-18T04:26:12;101550.81;;;10.08;68.10
60258;BME280;46115;44.484;11.314;2023-02-18T04:30:17;101555.03;;;10.14;67.98
60258;BME280;46115;44.484;11.314;2023-02-18T04:34:19;101557.66;;;9.84;68.97
60258;BME280;46115;44.484;11.314;2023-02-18T04:38:21;101568.53;;;10.03;68.41
60258;BME280;46115;44.484;11.314;2023-02-18T04:42:23;101567.00;;;9.96;68.84
60258;BME280;46115;44.484;11.314;2023-02-18T04:46:27;101558.78;;;10.05;68.04
60258;BME280;46115;44.484;11.314;2023-02-18T04:50:29;101561.47;;;10.04;68.48
60258;BME280;46115;44.484;11.314;2023-02-18T04:54:31;101560.75;;;9.98;68.46
60258;BME280;46115;44.484;11.314;2023-02-18T04:58:34;101562.59;;;9.96;68.83
60258;BME280;46115;44.484;11.314;2023-02-18T05:02:37;101563.44;;;9.97;68.02
60258;BME280;46115;44.484;11.314;2023-02-18T05:06:40;101570.69;;;9.90;68.47
60258;BME280;46115;44.484;11.314;2023-02-18T05:10:43;101565.22;;;9.65;69.23
60258;BME280;46115;44.484;11.314;2023-02-18T05:14:45;101568.34;;;9.80;68.97
60258;BME280;46115;44.484;11.314;2023-02-18T05:18:49;101555.66;;;9.61;69.36
60258;BME280;46115;44.484;11.314;2023-02-18T05:22:51;101560.25;;;9.55;69.57
60258;BME280;46115;44.484;11.314;2023-02-18T05:26:53;101562.84;;;9.56;69.37
60258;BME280;46115;44.484;11.314;2023-02-18T05:30:56;101560.41;;;9.49;69.81
60258;BME280;46115;44.484;11.314;2023-02-18T05:35:00;101545.78;;;9.37;69.97
60258;BME280;46115;44.484;11.314;2023-02-18T05:39:02;101526.72;;;9.26;69.80
60258;BME280;46115;44.484;11.314;2023-02-18T05:43:05;101551.69;;;9.47;69.46
60258;BME280;46115;44.484;11.314;2023-02-18T05:47:09;101553.56;;;9.42;69.65
60258;BME280;46115;44.484;11.314;2023-02-18T05:51:13;101558.00;;;9.41;70.23
60258;BME280;46115;44.484;11.314;2023-02-18T05:55:15;101568.22;;;9.53;69.35
60258;BME280;46115;44.484;11.314;2023-02-18T05:59:17;101566.94;;;9.34;69.99
60258;BME280;46115;44.484;11.314;2023-02-18T06:03:20;101557.34;;;9.31;70.02
60258;BME280;46115;44.484;11.314;2023-02-18T06:07:24;101559.63;;;9.13;70.62
60258;BME280;46115;44.484;11.314;2023-02-18T06:11:26;101577.47;;;9.37;70.24
60258;BME280;46115;44.484;11.314;2023-02-18T06:15:28;101576.84;;;9.26;70.37
60258;BME280;46115;44.484;11.314;2023-02-18T06:19:31;101575.69;;;9.36;69.74
60258;BME280;46115;44.484;11.314;2023-02-18T06:23:34;101573.91;;;9.36;70.23
60258;BME280;46115;44.484;11.314;2023-02-18T06:27:37;101553.34;;;9.17;70.12
60258;BME280;46115;44.484;11.314;2023-02-18T06:31:39;101569.75;;;9.28;70.15
60258;BME280;46115;44.484;11.314;2023-02-18T06:35:42;101571.28;;;9.38;70.32
60258;BME280;46115;44.484;11.314;2023-02-18T06:39:54;101578.25;;;9.41;69.99
60258;BME280;46115;44.484;11.314;2023-02-18T06:43:56;101577.38;;;9.40;69.88
60258;BME280;46115;44.484;11.314;2023-02-18T06:47:59;101581.53;;;9.49;70.20
60258;BME280;46115;44.484;11.314;2023-02-18T06:52:01;101592.53;;;9.64;69.36
60258;BME280;46115;44.484;11.314;2023-02-18T06:56:05;101594.44;;;9.59;69.95
60258;BME280;46115;44.484;11.314;2023-02-18T07:00:08;101593.09;;;9.77;68.77
60258;BME280;46115;44.484;11.314;2023-02-18T07:04:10;101581.56;;;9.80;68.39
60258;BME280;46115;44.484;11.314;2023-02-18T07:08:13;101587.84;;;10.05;68.31
60258;BME280;46115;44.484;11.314;2023-02-18T07:12:17;101585.16;;;10.08;67.92
60258;BME280;46115;44.484;11.314;2023-02-18T07:16:19;101595.97;;;10.30;68.12
60258;BME280;46115;44.484;11.314;2023-02-18T07:20:21;101594.91;;;10.65;66.19
60258;BME280;46115;44.484;11.314;2023-02-18T07:24:27;101606.63;;;11.12;65.11
60258;BME280;46115;44.484;11.314;2023-02-18T07:28:31;101603.75;;;11.45;64.08
60258;BME280;46115;44.484;11.314;2023-02-18T07:32:33;101606.38;;;11.70;63.40
60258;BME280;46115;44.484;11.314;2023-02-18T07:36:36;101597.13;;;11.83;62.93
60258;BME280;46115;44.484;11.314;2023-02-18T07:40:38;101609.59;;;12.28;60.24
60258;BME280;46115;44.484;11.314;2023-02-18T07:44:41;101597.19;;;12.95;58.77
60258;BME280;46115;44.484;11.314;2023-02-18T07:48:44;101605.66;;;13.88;57.13
60258;BME280;46115;44.484;11.314;2023-02-18T07:52:46;101607.84;;;13.78;56.38
60258;BME280;46115;44.484;11.314;2023-02-18T07:56:49;101602.59;;;13.97;55.54
60258;BME280;46115;44.484;11.314;2023-02-18T08:00:53;101612.97;;;16.34;50.26
60258;BME280;46115;44.484;11.314;2023-02-18T08:04:56;101614.81;;;15.48;50.73
60258;BME280;46115;44.484;11.314;2023-02-18T08:08:58;101588.28;;;15.97;49.60
60258;BME280;46115;44.484;11.314;2023-02-18T08:13:01;101619.59;;;15.76;50.43
60258;BME280;46115;44.484;11.314;2023-02-18T08:17:04;101630.69;;;16.35;49.00
60258;BME280;46115;44.484;11.314;2023-02-18T08:21:07;101646.91;;;19.92;41.61
60258;BME280;46115;44.484;11.314;2023-02-18T08:25:09;101648.50;;;20.58;39.36
60258;BME280;46115;44.484;11.314;2023-02-18T08:29:11;101659.81;;;21.11;38.66
60258;BME280;46115;44.484;11.314;2023-02-18T08:33:15;101657.25;;;21.92;36.82
60258;BME280;46115;44.484;11.314;2023-02-18T08:37:18;101662.75;;;21.56;37.01
60258;BME280;46115;44.484;11.314;2023-02-18T08:41:20;101655.13;;;19.63;40.43
60258;BME280;46115;44.484;11.314;2023-02-18T08:45:22;101649.31;;;19.03;41.24
60258;BME280;46115;44.484;11.314;2023-02-18T08:49:26;101656.97;;;20.39;39.16
60258;BME280;46115;44.484;11.314;2023-02-18T08:53:28;101659.72;;;22.18;35.51
60258;BME280;46115;44.484;11.314;2023-02-18T08:57:31;101654.19;;;19.77;39.79
60258;BME280;46115;44.484;11.314;2023-02-18T09:01:33;101655.59;;;22.47;35.54
60258;BME280;46115;44.484;11.314;2023-02-18T09:05:38;101663.81;;;22.23;35.61
60258;BME280;46115;44.484;11.314;2023-02-18T09:09:40;101666.59;;;21.40;36.40
60258;BME280;46115;44.484;11.314;2023-02-18T09:13:43;101651.66;;;22.85;33.74
60258;BME280;46115;44.484;11.314;2023-02-18T09:17:45;101656.75;;;23.42;32.86
60258;BME280;46115;44.484;11.314;2023-02-18T09:21:49;101648.91;;;23.07;33.63
60258;BME280;46115;44.484;11.314;2023-02-18T09:25:53;101652.50;;;24.53;31.56
60258;BME280;46115;44.484;11.314;2023-02-18T09:29:55;101657.13;;;24.72;30.95
60258;BME280;46115;44.484;11.314;2023-02-18T09:33:59;101660.16;;;26.14;29.17
60258;BME280;46115;44.484;11.314;2023-02-18T09:38:03;101648.13;;;26.26;28.97
60258;BME280;46115;44.484;11.314;2023-02-18T09:42:07;101644.84;;;25.47;30.22
60258;BME280;46115;44.484;11.314;2023-02-18T09:46:18;101623.06;;;27.42;27.13
60258;BME280;46115;44.484;11.314;2023-02-18T09:50:25;101627.28;;;26.64;27.32
60258;BME280;46115;44.484;11.314;2023-02-18T09:58:48;101611.59;;;20.97;37.14
60258;BME280;46115;44.484;11.314;2023-02-18T10:02:56;101591.84;;;21.68;36.04
60258;BME280;46115;44.484;11.314;2023-02-18T10:07:00;101588.50;;;19.96;39.06
60258;BME280;46115;44.484;11.314;2023-02-18T10:11:03;101583.59;;;18.70;41.23
60258;BME280;46115;44.484;11.314;2023-02-18T10:15:18;101582.59;;;19.13;40.72
60258;BME280;46115;44.484;11.314;2023-02-18T10:19:25;101580.69;;;18.88;42.28
60258;BME280;46115;44.484;11.314;2023-02-18T10:23:31;101580.66;;;19.15;41.18
60258;BME280;46115;44.484;11.314;2023-02-18T10:27:36;101565.41;;;17.92;43.67
60258;BME280;46115;44.484;11.314;2023-02-18T10:31:43;101562.53;;;18.23;43.66
60258;BME280;46115;44.484;11.314;2023-02-18T10:35:52;101519.19;;;17.75;43.99
60258;BME280;46115;44.484;11.314;2023-02-18T10:40:02;101557.41;;;18.06;43.58
60258;BME280;46115;44.484;11.314;2023-02-18T10:44:11;101554.44;;;17.82;44.10
60258;BME280;46115;44.484;11.314;2023-02-18T10:48:31;101546.06;;;17.58;45.16
60258;BME280;46115;44.484;11.314;2023-02-18T10:52:39;101547.09;;;16.81;46.46
60258;BME280;46115;44.484;11.314;2023-02-18T10:56:46;101530.16;;;17.12;46.17
60258;BME280;46115;44.484;11.314;2023-02-18T11:00:49;101530.16;;;17.12;46.23
60258;BME280;46115;44.484;11.314;2023-02-18T11:04:53;101516.56;;;17.45;46.03
60258;BME280;46115;44.484;11.314;2023-02-18T11:08:56;101521.00;;;17.17;46.86
60258;BME280;46115;44.484;11.314;2023-02-18T11:13:01;101511.72;;;16.78;48.07
60258;BME280;46115;44.484;11.314;2023-02-18T11:17:16;101497.97;;;16.38;48.23
60258;BME280;46115;44.484;11.314;2023-02-18T11:21:25;101487.25;;;16.54;47.74
60258;BME280;46115;44.484;11.314;2023-02-18T11:25:31;101492.44;;;16.41;47.97
60258;BME280;46115;44.484;11.314;2023-02-18T11:29:35;101445.03;;;16.15;47.73
60258;BME280;46115;44.484;11.314;2023-02-18T11:33:39;101488.66;;;16.45;48.05
60258;BME280;46115;44.484;11.314;2023-02-18T11:37:43;101476.94;;;16.48;47.86
60258;BME280;46115;44.484;11.314;2023-02-18T11:41:47;101473.50;;;16.30;48.51
60258;BME280;46115;44.484;11.314;2023-02-18T11:46:08;101480.47;;;16.48;48.60
60258;BME280;46115;44.484;11.314;2023-02-18T11:50:20;101466.25;;;16.48;49.02
60258;BME280;46115;44.484;11.314;2023-02-18T11:54:27;101464.72;;;16.44;49.16
60258;BME280;46115;44.484;11.314;2023-02-18T11:58:36;101455.00;;;16.27;49.46
60258;BME280;46115;44.484;11.314;2023-02-18T12:02:42;101459.56;;;16.25;50.05
60258;BME280;46115;44.484;11.314;2023-02-18T12:06:49;101453.44;;;16.23;50.21
60258;BME280;46115;44.484;11.314;2023-02-18T12:11:01;101439.34;;;16.37;49.72
60258;BME280;46115;44.484;11.314;2023-02-18T12:15:07;101429.34;;;16.40;49.64
60258;BME280;46115;44.484;11.314;2023-02-18T12:19:29;101429.44;;;16.23;49.12
60258;BME280;46115;44.484;11.314;2023-02-18T12:23:45;101434.88;;;16.06;50.29
60258;BME280;46115;44.484;11.314;2023-02-18T12:27:56;101423.28;;;16.07;50.49
60258;BME280;46115;44.484;11.314;2023-02-18T12:32:08;101426.38;;;15.99;49.89
60258;BME280;46115;44.484;11.314;2023-02-18T12:36:20;101416.22;;;15.90;51.31
60258;BME280;46115;44.484;11.314;2023-02-18T12:40:43;101394.97;;;15.88;51.43
60258;BME280;46115;44.484;11.314;2023-02-18T12:45:02;101388.19;;;15.99;50.91
60258;BME280;46115;44.484;11.314;2023-02-18T12:49:39;101404.00;;;15.86;51.32
60258;BME280;46115;44.484;11.314;2023-02-18T12:54:00;101393.44;;;16.00;50.42
60258;BME280;46115;44.484;11.314;2023-02-18T12:58:15;101390.41;;;15.90;50.65
60258;BME280;46115;44.484;11.314;2023-02-18T13:02:45;101396.34;;;15.80;50.88
60258;BME280;46115;44.484;11.314;2023-02-18T13:07:22;101381.22;;;15.96;50.77
60258;BME280;46115;44.484;11.314;2023-02-18T13:11:35;101377.44;;;15.69;51.34
60258;BME280;46115;44.484;11.314;2023-02-18T13:15:47;101371.84;;;15.73;50.80
60258;BME280;46115;44.484;11.314;2023-02-18T13:19:56;101362.56;;;15.65;52.04
60258;BME280;46115;44.484;11.314;2023-02-18T13:24:02;101367.72;;;15.68;51.42
60258;BME280;46115;44.484;11.314;2023-02-18T13:28:14;101351.41;;;14.92;52.92
60258;BME280;46115;44.484;11.314;2023-02-18T13:32:23;101335.09;;;15.47;52.14
60258;BME280;46115;44.484;11.314;2023-02-18T13:36:42;101355.31;;;15.02;52.97
60258;BME280;46115;44.484;11.314;2023-02-18T13:40:48;101347.06;;;15.22;52.96
60258;BME280;46115;44.484;11.314;2023-02-18T13:45:22;101350.91;;;15.34;53.12
60258;BME280;46115;44.484;11.314;2023-02-18T13:49:30;101314.53;;;15.49;52.27
60258;BME280;46115;44.484;11.314;2023-02-18T13:53:36;101318.16;;;15.48;52.42
60258;BME280;46115;44.484;11.314;2023-02-18T13:57:39;101328.94;;;15.62;52.30
60258;BME280;46115;44.484;11.314;2023-02-18T14:01:43;101326.66;;;15.39;52.82
60258;BME280;46115;44.484;11.314;2023-02-18T14:05:46;101326.66;;;15.39;52.90
60258;BME280;46115;44.484;11.314;2023-02-18T14:09:51;101318.94;;;15.34;53.18
60258;BME280;46115;44.484;11.314;2023-02-18T14:13:55;101283.41;;;15.02;53.49
60258;BME280;46115;44.484;11.314;2023-02-18T14:18:32;101301.88;;;15.21;53.31
60258;BME280;46115;44.484;11.314;2023-02-18T14:22:44;101291.06;;;15.08;53.97
60258;BME280;46115;44.484;11.314;2023-02-18T14:26:48;101288.06;;;14.81;55.42
60258;BME280;46115;44.484;11.314;2023-02-18T14:30:50;101285.13;;;14.70;55.49
60258;BME280;46115;44.484;11.314;2023-02-18T14:39:38;101267.78;;;14.96;54.93
60258;BME280;46115;44.484;11.314;2023-02-18T14:43:59;101257.50;;;14.55;55.92
60258;BME280;46115;44.484;11.314;2023-02-18T14:48:23;101254.66;;;14.60;56.12
60258;BME280;46115;44.484;11.314;2023-02-18T14:56:43;101258.19;;;14.43;56.08
60258;BME280;46115;44.484;11.314;2023-02-18T15:00:51;101249.13;;;14.96;55.68
60258;BME280;46115;44.484;11.314;2023-02-18T15:04:53;101251.06;;;14.77;56.25
60258;BME280;46115;44.484;11.314;2023-02-18T15:08:55;101243.75;;;14.64;56.49
60258;BME280;46115;44.484;11.314;2023-02-18T15:12:57;101237.16;;;14.87;56.12
60258;BME280;46115;44.484;11.314;2023-02-18T15:17:03;101244.84;;;14.60;56.64
60258;BME280;46115;44.484;11.314;2023-02-18T15:21:12;101237.94;;;14.74;56.32
60258;BME280;46115;44.484;11.314;2023-02-18T15:25:17;101232.09;;;14.50;57.07
60258;BME280;46115;44.484;11.314;2023-02-18T15:29:22;101230.78;;;14.58;57.13
60258;BME280;46115;44.484;11.314;2023-02-18T15:33:27;101200.44;;;14.28;57.67
60258;BME280;46115;44.484;11.314;2023-02-18T15:37:30;101220.25;;;14.22;57.88
60258;BME280;46115;44.484;11.314;2023-02-18T15:41:32;101217.59;;;14.22;57.86
60258;BME280;46115;44.484;11.314;2023-02-18T15:45:35;101217.53;;;14.40;57.75
60258;BME280;46115;44.484;11.314;2023-02-18T15:49:45;101188.78;;;14.13;57.80
60258;BME280;46115;44.484;11.314;2023-02-18T15:53:50;101203.88;;;14.30;58.01
60258;BME280;46115;44.484;11.314;2023-02-18T15:57:53;101222.34;;;14.16;58.53
60258;BME280;46115;44.484;11.314;2023-02-18T16:02:02;101222.97;;;14.21;58.62
60258;BME280;46115;44.484;11.314;2023-02-18T16:06:17;101221.56;;;14.31;58.58
60258;BME280;46115;44.484;11.314;2023-02-18T16:10:23;101219.22;;;14.25;58.95
60258;BME280;46115;44.484;11.314;2023-02-18T16:14:32;101206.00;;;14.23;58.76
60258;BME280;46115;44.484;11.314;2023-02-18T16:18:37;101212.09;;;14.43;58.69
60258;BME280;46115;44.484;11.314;2023-02-18T16:22:45;101204.34;;;14.21;59.47
60258;BME280;46115;44.484;11.314;2023-02-18T16:26:49;101206.22;;;14.19;59.55
60258;BME280;46115;44.484;11.314;2023-02-18T16:30:52;101204.91;;;14.10;59.81
60258;BME280;46115;44.484;11.314;2023-02-18T16:34:55;101209.13;;;14.14;59.88
60258;BME280;46115;44.484;11.314;2023-02-18T16:38:58;101217.88;;;14.33;59.43
60258;BME280;46115;44.484;11.314;2023-02-18T16:43:08;101206.88;;;14.24;59.55
60258;BME280;46115;44.484;11.314;2023-02-18T16:47:14;101218.53;;;14.04;59.99
60258;BME280;46115;44.484;11.314;2023-02-18T16:51:21;101215.31;;;13.97;59.97
60258;BME280;46115;44.484;11.314;2023-02-18T16:55:27;101216.19;;;13.98;59.76
60258;BME280;46115;44.484;11.314;2023-02-18T16:59:30;101218.16;;;13.94;59.93
60258;BME280;46115;44.484;11.314;2023-02-18T17:03:32;101220.72;;;13.96;60.26
60258;BME280;46115;44.484;11.314;2023-02-18T17:07:34;101224.84;;;13.84;60.43
60258;BME280;46115;44.484;11.314;2023-02-18T17:11:38;101195.69;;;13.65;60.51
60258;BME280;46115;44.484;11.314;2023-02-18T23:06:09;101256.44;;;11.12;72.46
60258;BME280;46115;44.484;11.314;2023-02-18T23:10:11;101260.44;;;11.22;72.16
60258;BME280;46115;44.484;11.314;2023-02-18T23:14:13;101266.41;;;11.27;72.12
60258;BME280;46115;44.484;11.314;2023-02-18T23:18:18;101228.22;;;10.89;72.68
60258;BME280;46115;44.484;11.314;2023-02-18T23:22:26;101254.00;;;11.06;72.19
60258;BME280;46115;44.484;11.314;2023-02-18T23:26:30;101268.81;;;11.11;72.80
60258;BME280;46115;44.484;11.314;2023-02-18T23:30:32;101269.94;;;11.04;73.08
60258;BME280;46115;44.484;11.314;2023-02-18T23:34:34;101262.91;;;11.03;73.05
60258;BME280;46115;44.484;11.314;2023-02-18T23:38:39;101267.09;;;11.10;72.71
60258;BME280;46115;44.484;11.314;2023-02-18T23:42:42;101270.34;;;11.17;72.18
60258;BME280;46115;44.484;11.314;2023-02-18T23:46:44;101259.03;;;11.13;72.55
60258;BME280;46115;44.484;11.314;2023-02-18T23:50:46;101257.44;;;11.08;72.77
60258;BME280;46115;44.484;11.314;2023-02-18T23:54:50;101236.75;;;11.19;72.55
60258;BME280;46115;44.484;11.314;2023-02-18T23:58:53;101250.63;;;11.02;72.68
